createdAt,value
2023-03-12T00:02:22.773Z,-0.70
2023-03-12T00:04:49.661Z,-0.60
2023-03-12T00:07:16.629Z,-0.50
2023-03-12T00:09:43.621Z,-0.40
2023-03-12T00:12:10.673Z,-0.40
2023-03-12T00:14:37.597Z,-0.40
2023-03-12T00:17:04.491Z,-0.30
2023-03-12T00:19:31.400Z,-0.30
2023-03-12T00:21:58.417Z,-0.30
2023-03-12T00:24:27.288Z,-0.30
2023-03-12T00:26:54.133Z,-0.30
2023-03-12T00:29:20.946Z,-0.20
2023-03-12T00:31:47.922Z,-0.30
2023-03-12T00:34:14.845Z,-0.10
2023-03-12T00:36:41.822Z,0.00
2023-03-12T00:39:08.755Z,0.00
2023-03-12T00:41:35.776Z,0.10
2023-03-12T00:44:02.811Z,0.20
2023-03-12T00:46:29.761Z,0.20
2023-03-12T00:48:56.707Z,0.40
2023-03-12T00:51:23.765Z,0.30
2023-03-12T00:53:50.914Z,0.40
2023-03-12T00:56:17.941Z,0.50
2023-03-12T00:58:45.159Z,0.80
2023-03-12T01:01:12.502Z,0.70
2023-03-12T01:03:39.522Z,0.60
2023-03-12T01:06:06.799Z,0.60
2023-03-12T01:08:34.390Z,0.60
2023-03-12T01:11:01.279Z,0.50
2023-03-12T01:13:28.137Z,0.70
2023-03-12T01:15:55.376Z,0.60
2023-03-12T01:18:22.422Z,0.60
2023-03-12T01:20:49.373Z,0.80
2023-03-12T01:23:16.373Z,0.60
2023-03-12T01:25:43.565Z,0.70
2023-03-12T01:28:10.458Z,0.60
2023-03-12T01:30:37.490Z,0.70
2023-03-12T01:33:04.481Z,0.70
2023-03-12T01:35:35.397Z,0.60
2023-03-12T01:38:02.256Z,0.60
2023-03-12T01:40:29.375Z,0.50
2023-03-12T01:42:58.385Z,0.60
2023-03-12T01:46:00.174Z,0.60
2023-03-12T01:48:34.271Z,0.60
2023-03-12T01:51:02.660Z,0.60
2023-03-12T01:53:30.854Z,0.60
2023-03-12T01:56:00.325Z,0.60
2023-03-12T01:58:30.657Z,0.70
2023-03-12T02:00:57.931Z,0.70
2023-03-12T02:03:24.944Z,0.70
2023-03-12T02:06:06.812Z,0.70
2023-03-12T02:08:38.335Z,0.70
2023-03-12T02:11:05.312Z,1.80
2023-03-12T02:13:32.624Z,0.70
2023-03-12T02:15:59.749Z,0.80
2023-03-12T02:18:27.832Z,0.80
2023-03-12T02:21:24.249Z,1.10
2023-03-12T02:23:57.932Z,0.80
2023-03-12T02:26:26.668Z,0.90
2023-03-12T02:28:54.592Z,0.80
2023-03-12T02:31:25.789Z,0.80
2023-03-12T02:33:53.301Z,1.40
2023-03-12T02:36:20.763Z,0.90
2023-03-12T02:38:52.710Z,1.00
2023-03-12T02:41:33.963Z,1.10
2023-03-12T02:44:17.957Z,0.90
2023-03-12T02:46:48.248Z,1.00
2023-03-12T02:49:17.106Z,1.00
2023-03-12T02:51:45.011Z,1.00
2023-03-12T02:54:13.674Z,1.00
2023-03-12T02:56:41.131Z,1.00
2023-03-12T02:59:09.421Z,1.00
2023-03-12T03:01:36.523Z,1.00
2023-03-12T03:04:05.808Z,1.00
2023-03-12T03:06:33.832Z,0.90
2023-03-12T03:09:00.747Z,1.20
2023-03-12T03:11:27.873Z,1.20
2023-03-12T03:13:55.365Z,1.00
2023-03-12T03:16:22.664Z,1.00
2023-03-12T03:18:49.924Z,1.00
2023-03-12T03:21:17.974Z,1.00
2023-03-12T03:23:46.585Z,0.90
2023-03-12T03:26:14.519Z,0.90
2023-03-12T03:31:08.209Z,0.90
2023-03-12T03:33:36.957Z,1.10
2023-03-12T03:36:04.761Z,1.00
2023-03-12T03:38:33.026Z,0.80
2023-03-12T03:40:59.968Z,0.80
2023-03-12T03:43:27.744Z,0.90
2023-03-12T03:46:03.471Z,0.90
2023-03-12T03:48:30.363Z,1.20
2023-03-12T03:51:01.915Z,1.00
2023-03-12T03:53:28.902Z,1.60
2023-03-12T03:55:56.090Z,0.90
2023-03-12T03:58:23.233Z,1.20
2023-03-12T04:00:50.517Z,1.00
2023-03-12T04:03:17.423Z,1.00
2023-03-12T04:05:45.381Z,1.20
2023-03-12T04:08:13.662Z,1.10
2023-03-12T04:10:41.116Z,1.00
2023-03-12T04:13:07.937Z,1.20
2023-03-12T04:15:34.840Z,1.10
2023-03-12T04:18:01.868Z,1.00
2023-03-12T04:20:28.824Z,1.00
2023-03-12T04:22:55.738Z,1.10
2023-03-12T04:25:22.629Z,1.00
2023-03-12T04:27:49.494Z,0.90
2023-03-12T04:30:16.425Z,0.90
2023-03-12T04:32:43.310Z,0.80
2023-03-12T04:35:10.217Z,0.80
2023-03-12T04:37:37.170Z,0.80
2023-03-12T04:40:07.585Z,0.80
2023-03-12T04:42:35.609Z,0.80
2023-03-12T04:45:04.374Z,0.90
2023-03-12T04:47:32.927Z,1.00
2023-03-12T04:50:00.237Z,1.00
2023-03-12T04:52:27.503Z,1.40
2023-03-12T04:54:55.005Z,1.00
2023-03-12T04:57:22.308Z,1.00
2023-03-12T04:59:49.248Z,1.00
2023-03-12T05:02:16.091Z,1.10
2023-03-12T05:04:43.297Z,1.00
2023-03-12T05:07:10.182Z,1.00
2023-03-12T05:09:37.255Z,1.00
2023-03-12T05:12:04.424Z,1.10
2023-03-12T05:14:31.359Z,1.00
2023-03-12T05:16:58.170Z,1.10
2023-03-12T05:19:25.010Z,1.20
2023-03-12T05:21:51.926Z,1.70
2023-03-12T05:24:19.153Z,1.50
2023-03-12T05:26:46.054Z,1.10
2023-03-12T05:29:13.085Z,1.30
2023-03-12T05:31:39.989Z,1.20
2023-03-12T05:34:07.084Z,1.20
2023-03-12T05:36:33.953Z,1.30
2023-03-12T05:39:00.833Z,1.60
2023-03-12T05:41:29.664Z,1.30
2023-03-12T05:43:57.601Z,1.30
2023-03-12T05:46:26.285Z,1.30
2023-03-12T05:48:53.262Z,1.30
2023-03-12T05:51:21.114Z,1.20
2023-03-12T05:53:47.992Z,1.20
2023-03-12T05:56:16.929Z,1.30
2023-03-12T05:58:44.311Z,1.70
2023-03-12T06:01:17.846Z,1.30
2023-03-12T06:03:45.093Z,1.30
2023-03-12T06:06:12.170Z,1.30
2023-03-12T06:08:39.992Z,1.30
2023-03-12T06:11:06.992Z,1.30
2023-03-12T06:13:34.395Z,1.40
2023-03-12T06:16:06.958Z,1.40
2023-03-12T06:18:34.574Z,1.40
2023-03-12T06:21:19.112Z,1.40
2023-03-12T06:23:47.166Z,1.50
2023-03-12T06:26:15.416Z,1.40
2023-03-12T06:28:42.438Z,1.40
2023-03-12T06:31:10.926Z,1.60
2023-03-12T06:33:37.933Z,1.40
2023-03-12T06:36:06.285Z,1.50
2023-03-12T06:38:33.992Z,1.50
2023-03-12T06:41:02.057Z,2.00
2023-03-12T06:43:31.358Z,1.90
2023-03-12T06:45:59.997Z,1.50
2023-03-12T06:48:28.618Z,1.80
2023-03-12T06:50:55.963Z,1.60
2023-03-12T06:53:23.260Z,1.90
2023-03-12T06:55:51.109Z,1.90
2023-03-12T06:58:19.125Z,2.00
2023-03-12T07:00:46.025Z,2.10
2023-03-12T07:03:13.036Z,2.20
2023-03-12T07:05:40.555Z,2.20
2023-03-12T07:08:07.484Z,2.20
2023-03-12T07:10:34.375Z,2.10
2023-03-12T07:13:01.196Z,2.00
2023-03-12T07:15:28.056Z,2.10
2023-03-12T07:17:55.121Z,2.00
2023-03-12T07:20:22.063Z,2.00
2023-03-12T07:22:48.892Z,2.00
2023-03-12T07:25:17.874Z,2.10
2023-03-12T07:27:45.763Z,1.90
2023-03-12T07:30:12.955Z,1.90
2023-03-12T07:32:40.058Z,1.90
2023-03-12T07:35:07.336Z,2.20
2023-03-12T07:37:34.183Z,2.00
2023-03-12T07:40:01.097Z,2.00
2023-03-12T07:42:27.975Z,2.10
2023-03-12T07:44:54.877Z,2.20
2023-03-12T07:47:24.339Z,2.20
2023-03-12T07:49:52.073Z,2.40
2023-03-12T07:52:20.292Z,2.60
2023-03-12T07:54:47.940Z,2.70
2023-03-12T07:57:15.039Z,2.80
2023-03-12T07:59:43.115Z,3.00
2023-03-12T08:02:10.932Z,2.80
2023-03-12T08:04:37.976Z,2.80
2023-03-12T08:07:07.379Z,2.90
2023-03-12T08:09:36.511Z,3.00
2023-03-12T08:12:03.501Z,3.10
2023-03-12T08:14:31.799Z,3.10
2023-03-12T08:16:59.071Z,3.20
2023-03-12T08:19:26.887Z,3.00
2023-03-12T08:21:54.212Z,3.20
2023-03-12T08:24:21.913Z,3.10
2023-03-12T08:26:48.790Z,3.20
2023-03-12T08:29:16.619Z,3.20
2023-03-12T08:32:01.457Z,3.10
2023-03-12T08:34:28.706Z,3.00
2023-03-12T08:36:56.511Z,3.10
2023-03-12T08:39:23.434Z,3.10
2023-03-12T08:41:51.732Z,3.10
2023-03-12T08:44:18.680Z,3.20
2023-03-12T08:46:45.544Z,3.00
2023-03-12T08:49:12.381Z,3.00
2023-03-12T08:51:39.175Z,3.00
2023-03-12T08:54:06.065Z,3.10
2023-03-12T08:56:33.286Z,3.20
2023-03-12T08:59:00.192Z,3.10
2023-03-12T09:01:27.167Z,3.00
2023-03-12T09:03:55.403Z,3.00
2023-03-12T09:06:22.333Z,3.10
2023-03-12T09:08:51.643Z,3.30
2023-03-12T09:11:18.868Z,3.30
2023-03-12T09:14:11.604Z,3.30
2023-03-12T09:16:35.535Z,3.40
2023-03-12T09:19:02.525Z,3.30
2023-03-12T09:21:29.389Z,3.10
2023-03-12T09:23:56.721Z,3.00
2023-03-12T09:26:24.160Z,2.80
2023-03-12T09:28:51.174Z,2.70
2023-03-12T09:31:18.084Z,2.70
2023-03-12T09:33:45.216Z,2.70
2023-03-12T09:36:12.238Z,2.80
2023-03-12T09:38:39.206Z,2.80
2023-03-12T09:41:15.087Z,2.70
2023-03-12T09:44:04.843Z,2.60
2023-03-12T09:46:46.723Z,2.70
2023-03-12T09:49:59.783Z,2.70
2023-03-12T09:52:35.926Z,2.70
2023-03-12T09:55:16.296Z,2.70
2023-03-12T09:57:44.234Z,2.80
2023-03-12T10:00:35.425Z,2.70
2023-03-12T10:03:10.087Z,2.60
2023-03-12T10:06:04.107Z,2.70
2023-03-12T10:09:06.854Z,2.60
2023-03-12T10:11:57.795Z,2.60
2023-03-12T10:14:33.463Z,2.60
2023-03-12T10:17:10.359Z,2.50
2023-03-12T10:20:05.305Z,2.60
2023-03-12T10:22:50.385Z,2.30
2023-03-12T10:25:40.622Z,2.20
2023-03-12T10:28:27.902Z,2.20
2023-03-12T10:30:59.495Z,2.20
2023-03-12T10:33:44.813Z,2.20
2023-03-12T10:36:21.497Z,2.30
2023-03-12T10:38:49.517Z,2.40
2023-03-12T10:41:21.012Z,2.60
2023-03-12T10:43:47.992Z,2.50
2023-03-12T10:46:14.821Z,2.60
2023-03-12T10:48:43.252Z,2.60
2023-03-12T10:51:12.900Z,2.70
2023-03-12T10:53:42.835Z,2.80
2023-03-12T10:56:16.421Z,2.80
2023-03-12T10:58:53.770Z,2.80
2023-03-12T11:01:27.896Z,2.90
2023-03-12T11:04:16.884Z,3.00
2023-03-12T11:07:02.350Z,2.90
2023-03-12T11:09:29.299Z,2.90
2023-03-12T11:11:57.036Z,3.00
2023-03-12T11:14:27.629Z,3.10
2023-03-12T11:16:56.680Z,3.20
2023-03-12T11:19:33.072Z,3.20
2023-03-12T11:22:08.886Z,3.20
2023-03-12T11:24:36.098Z,3.20
2023-03-12T11:27:20.495Z,3.20
2023-03-12T11:29:50.506Z,3.30
2023-03-12T11:32:31.231Z,3.40
2023-03-12T11:34:59.086Z,3.40
2023-03-12T11:37:50.625Z,3.50
2023-03-12T11:40:20.364Z,3.50
2023-03-12T11:43:07.445Z,3.60
2023-03-12T11:45:56.711Z,3.50
2023-03-12T11:48:34.822Z,3.60
2023-03-12T11:51:10.784Z,3.60
2023-03-12T11:53:40.445Z,3.70
2023-03-12T11:56:07.243Z,3.80
2023-03-12T11:58:39.897Z,3.90
2023-03-12T12:01:41.241Z,4.00
2023-03-12T12:04:36.364Z,4.20
2023-03-12T12:07:27.903Z,4.30
2023-03-12T12:10:32.785Z,4.40
2023-03-12T12:13:10.779Z,4.50
2023-03-12T12:16:02.563Z,4.50
2023-03-12T12:18:38.985Z,4.60
2023-03-12T12:21:35.150Z,4.80
2023-03-12T12:24:24.324Z,4.90
2023-03-12T12:27:20.787Z,4.90
2023-03-12T12:30:12.335Z,4.90
2023-03-12T12:33:08.254Z,5.00
2023-03-12T12:35:45.536Z,5.10
2023-03-12T12:38:15.140Z,5.20
2023-03-12T12:40:44.016Z,5.20
2023-03-12T12:43:23.180Z,5.20
2023-03-12T12:45:53.262Z,5.40
2023-03-12T12:48:29.587Z,5.40
2023-03-12T12:51:00.134Z,5.50
2023-03-12T12:53:35.677Z,5.60
2023-03-12T12:56:17.662Z,5.70
2023-03-12T12:59:09.187Z,5.80
2023-03-12T13:01:37.876Z,5.90
2023-03-12T13:04:11.385Z,6.00
2023-03-12T13:07:01.065Z,6.00
2023-03-12T13:09:43.793Z,6.00
2023-03-12T13:12:25.765Z,6.00
2023-03-12T13:14:54.926Z,6.10
2023-03-12T13:17:57.089Z,6.10
2023-03-12T13:20:36.128Z,6.20
2023-03-12T13:23:13.051Z,6.10
2023-03-12T13:26:22.923Z,6.30
2023-03-12T13:28:56.851Z,6.30
2023-03-12T13:31:29.680Z,6.40
2023-03-12T13:34:17.259Z,6.40
2023-03-12T13:36:46.155Z,6.50
2023-03-12T13:39:16.015Z,6.50
2023-03-12T13:41:54.622Z,6.60
2023-03-12T13:44:27.608Z,6.60
2023-03-12T13:47:30.539Z,6.70
2023-03-12T13:50:14.030Z,6.80
2023-03-12T13:52:47.046Z,6.90
2023-03-12T13:55:13.967Z,6.90
2023-03-12T13:57:43.327Z,7.00
2023-03-12T14:00:33.235Z,7.10
2023-03-12T14:03:02.055Z,7.10
2023-03-12T14:05:30.843Z,7.20
2023-03-12T14:08:41.643Z,7.30
2023-03-12T14:11:08.498Z,7.50
2023-03-12T14:13:43.542Z,7.60
2023-03-12T14:16:16.548Z,7.70
2023-03-12T14:18:45.768Z,7.90
2023-03-12T14:21:16.759Z,8.00
2023-03-12T14:23:53.006Z,8.00
2023-03-12T14:26:31.539Z,8.00
2023-03-12T14:29:09.628Z,8.10
2023-03-12T14:31:38.121Z,8.20
2023-03-12T14:34:20.526Z,8.20
2023-03-12T14:36:57.766Z,8.30
2023-03-12T14:39:32.621Z,8.30
2023-03-12T14:42:01.941Z,8.30
2023-03-12T14:44:30.706Z,8.30
2023-03-12T14:47:07.714Z,8.30
2023-03-12T14:49:40.833Z,8.30
2023-03-12T14:52:08.124Z,8.30
2023-03-12T14:54:35.062Z,8.30
2023-03-12T14:57:01.950Z,8.30
2023-03-12T14:59:31.436Z,8.20
2023-03-12T15:02:02.140Z,8.20
2023-03-12T15:04:30.397Z,8.20
2023-03-12T15:06:59.461Z,8.20
2023-03-12T15:09:29.369Z,8.20
2023-03-12T15:12:02.274Z,8.10
2023-03-12T15:14:33.454Z,8.20
2023-03-12T15:17:00.874Z,8.10
2023-03-12T15:19:32.733Z,8.10
2023-03-12T15:22:00.487Z,8.10
2023-03-12T15:24:30.488Z,8.10
2023-03-12T15:26:57.347Z,8.20
2023-03-12T15:29:29.315Z,8.20
2023-03-12T15:31:58.960Z,8.20
2023-03-12T15:34:36.244Z,8.20
2023-03-12T15:37:49.424Z,8.30
2023-03-12T15:40:27.936Z,8.30
2023-03-12T15:42:59.272Z,8.30
2023-03-12T15:45:30.389Z,8.30
2023-03-12T15:47:57.524Z,8.30
2023-03-12T15:50:34.716Z,8.30
2023-03-12T15:53:26.369Z,8.30
2023-03-12T15:56:05.097Z,8.30
2023-03-12T15:58:41.756Z,8.30
2023-03-12T16:01:17.369Z,8.30
2023-03-12T16:03:45.813Z,8.40
2023-03-12T16:06:18.700Z,8.40
2023-03-12T16:08:52.889Z,8.40
2023-03-12T16:11:25.873Z,8.40
2023-03-12T16:14:18.889Z,8.40
2023-03-12T16:16:46.453Z,8.40
2023-03-12T16:19:18.853Z,8.40
2023-03-12T16:21:46.531Z,8.50
2023-03-12T16:24:14.276Z,8.50
2023-03-12T16:26:52.002Z,8.50
2023-03-12T16:29:20.735Z,8.40
2023-03-12T16:31:55.417Z,8.40
2023-03-12T16:34:22.504Z,8.40
2023-03-12T16:36:49.570Z,8.40
2023-03-12T16:39:18.764Z,8.40
2023-03-12T16:41:46.576Z,8.40
2023-03-12T16:44:20.639Z,8.40
2023-03-12T16:46:47.698Z,8.40
2023-03-12T16:49:16.954Z,8.40
2023-03-12T16:51:43.911Z,8.40
2023-03-12T16:54:12.306Z,8.40
2023-03-12T16:56:43.180Z,8.40
2023-03-12T16:59:27.159Z,8.30
2023-03-12T17:01:54.417Z,8.30
2023-03-12T17:04:21.360Z,8.30
2023-03-12T17:06:48.244Z,8.40
2023-03-12T17:09:15.112Z,8.40
2023-03-12T17:11:42.155Z,8.40
2023-03-12T17:14:29.426Z,8.40
2023-03-12T17:16:56.306Z,8.40
2023-03-12T17:19:23.210Z,8.50
2023-03-12T17:21:50.334Z,8.50
2023-03-12T17:24:17.814Z,8.60
2023-03-12T17:26:46.438Z,8.40
2023-03-12T17:29:13.321Z,8.40
2023-03-12T17:31:40.372Z,8.30
2023-03-12T17:34:07.348Z,8.30
2023-03-12T17:36:37.205Z,8.30
2023-03-12T17:39:04.833Z,8.30
2023-03-12T17:41:32.595Z,8.20
2023-03-12T17:44:01.745Z,8.20
2023-03-12T17:46:30.108Z,8.20
2023-03-12T17:48:57.196Z,8.20
2023-03-12T17:51:24.395Z,8.20
2023-03-12T17:53:51.265Z,8.20
2023-03-12T17:56:21.916Z,8.20
2023-03-12T17:58:48.873Z,8.20
2023-03-12T18:01:16.605Z,8.00
2023-03-12T18:03:44.122Z,8.10
2023-03-12T18:06:11.766Z,8.00
2023-03-12T18:08:38.745Z,8.10
2023-03-12T18:11:05.833Z,8.10
2023-03-12T18:13:32.815Z,8.10
2023-03-12T18:15:59.878Z,8.10
2023-03-12T18:18:27.261Z,8.20
2023-03-12T18:20:54.426Z,8.20
2023-03-12T18:23:21.421Z,8.20
2023-03-12T18:25:48.418Z,8.10
2023-03-12T18:28:15.421Z,8.10
2023-03-12T18:30:45.054Z,8.10
2023-03-12T18:33:12.083Z,8.10
2023-03-12T18:35:39.084Z,8.10
2023-03-12T18:38:06.218Z,8.10
2023-03-12T18:40:33.213Z,8.10
2023-03-12T18:43:01.096Z,8.10
2023-03-12T18:45:29.169Z,8.10
2023-03-12T18:47:56.526Z,8.10
2023-03-12T18:50:23.466Z,8.10
2023-03-12T18:52:50.317Z,8.10
2023-03-12T18:55:17.704Z,8.10
2023-03-12T18:57:46.458Z,8.10
2023-03-12T19:00:17.698Z,8.10
2023-03-12T19:02:47.872Z,8.10
2023-03-12T19:05:15.420Z,8.10
2023-03-12T19:07:42.644Z,8.20
2023-03-12T19:10:10.444Z,8.20
2023-03-12T19:12:50.983Z,8.20
2023-03-12T19:15:19.267Z,8.10
2023-03-12T19:17:46.252Z,8.10
2023-03-12T19:20:14.098Z,8.10
2023-03-12T19:22:40.999Z,8.10
2023-03-12T19:25:08.297Z,8.10
2023-03-12T19:27:35.227Z,8.10
2023-03-12T19:30:02.296Z,8.20
2023-03-12T19:32:40.597Z,8.20
2023-03-12T19:35:11.227Z,8.20
2023-03-12T19:37:38.211Z,8.20
2023-03-12T19:40:06.104Z,8.30
2023-03-12T19:42:33.481Z,8.30
2023-03-12T19:45:00.430Z,8.30
2023-03-12T19:47:28.107Z,8.30
2023-03-12T19:49:55.059Z,8.40
2023-03-12T19:52:22.042Z,8.40
2023-03-12T19:55:01.499Z,8.40
2023-03-12T19:57:31.124Z,8.40
2023-03-12T19:59:58.110Z,8.40
2023-03-12T20:02:26.105Z,8.40
2023-03-12T20:04:53.223Z,8.40
2023-03-12T20:07:20.147Z,8.40
2023-03-12T20:09:47.056Z,8.40
2023-03-12T20:12:13.966Z,8.40
2023-03-12T20:14:42.679Z,8.40
2023-03-12T20:17:11.127Z,8.40
2023-03-12T20:19:38.950Z,8.40
2023-03-12T20:22:06.607Z,8.50
2023-03-12T20:24:33.657Z,8.50
2023-03-12T20:27:00.718Z,8.50
2023-03-12T20:29:27.694Z,8.50
2023-03-12T20:31:54.789Z,8.50
2023-03-12T20:34:21.890Z,8.50
2023-03-12T20:36:48.849Z,8.50
2023-03-12T20:39:15.843Z,8.50
2023-03-12T20:41:42.767Z,8.50
2023-03-12T20:44:09.626Z,8.60
2023-03-12T20:46:36.500Z,8.60
2023-03-12T20:49:03.400Z,8.70
2023-03-12T20:51:30.346Z,8.80
2023-03-12T20:53:57.718Z,8.80
2023-03-12T20:56:24.643Z,8.70
2023-03-12T20:58:52.259Z,8.80
2023-03-12T21:01:19.557Z,8.80
2023-03-12T21:03:46.520Z,8.80
2023-03-12T21:06:13.532Z,8.80
2023-03-12T21:08:40.390Z,8.80
2023-03-12T21:11:07.619Z,8.80
2023-03-12T21:13:34.802Z,8.80
2023-03-12T21:16:04.399Z,8.80
2023-03-12T21:18:31.341Z,8.90
2023-03-12T21:21:03.693Z,8.90
2023-03-12T21:23:33.905Z,8.90
2023-03-12T21:26:02.951Z,8.80
2023-03-12T21:28:33.027Z,8.80
2023-03-12T21:31:08.145Z,8.80
2023-03-12T21:33:35.172Z,8.80
2023-03-12T21:36:05.396Z,8.70
2023-03-12T21:38:34.251Z,8.70
2023-03-12T21:41:12.524Z,8.80
2023-03-12T21:43:39.772Z,8.80
2023-03-12T21:46:15.680Z,8.80
2023-03-12T21:48:47.309Z,8.80
2023-03-12T21:51:16.270Z,8.80
2023-03-12T21:53:43.622Z,8.80
2023-03-12T21:56:11.492Z,8.80
2023-03-12T21:58:38.510Z,8.80
2023-03-12T22:01:14.965Z,8.90
2023-03-12T22:03:43.836Z,8.80
2023-03-12T22:06:11.672Z,8.90
2023-03-12T22:08:39.130Z,8.90
2023-03-12T22:11:07.098Z,8.90
2023-03-12T22:13:34.142Z,8.80
2023-03-12T22:16:08.255Z,8.90
2023-03-12T22:18:42.449Z,8.80
2023-03-12T22:21:15.009Z,8.90
2023-03-12T22:23:41.913Z,8.90
2023-03-12T22:26:09.242Z,8.90
2023-03-12T22:28:36.103Z,8.80
2023-03-12T22:31:05.819Z,8.80
2023-03-12T22:33:35.653Z,8.90
2023-03-12T22:36:08.282Z,8.90
2023-03-12T22:38:39.339Z,8.90
2023-03-12T22:41:27.158Z,8.90
2023-03-12T22:43:56.800Z,8.80
2023-03-12T22:46:25.629Z,8.80
2023-03-12T22:48:55.355Z,8.80
2023-03-12T22:51:23.070Z,8.80
2023-03-12T22:53:50.061Z,8.80
2023-03-12T22:56:17.146Z,8.70
2023-03-12T22:58:44.206Z,8.70
2023-03-12T23:01:16.898Z,8.70
2023-03-12T23:03:45.484Z,8.70
2023-03-12T23:06:18.446Z,8.70
2023-03-12T23:08:47.620Z,8.70
2023-03-12T23:11:15.488Z,8.70
2023-03-12T23:13:44.561Z,8.70
2023-03-12T23:16:20.519Z,8.70
2023-03-12T23:18:47.900Z,8.70
2023-03-12T23:21:19.983Z,8.80
2023-03-12T23:23:47.379Z,8.80
2023-03-12T23:26:17.045Z,8.90
2023-03-12T23:28:44.536Z,8.90
2023-03-12T23:31:11.495Z,8.90
2023-03-12T23:33:38.541Z,8.90
2023-03-12T23:36:07.340Z,8.80
2023-03-12T23:38:37.507Z,8.80
2023-03-12T23:41:16.192Z,8.80
2023-03-12T23:43:43.646Z,8.80
2023-03-12T23:46:11.964Z,8.80
2023-03-12T23:48:40.554Z,8.80
2023-03-12T23:51:38.029Z,8.80
2023-03-12T23:54:05.587Z,8.80
2023-03-12T23:56:35.337Z,8.80
2023-03-12T23:59:03.354Z,8.70
